Weather at Whalsay Airstrip

Public forecast

Using degrees Celsius for public forecast. Weather courtesy of forecast.io.

Closest aviation weather report (METAR) to Whalsay Airstrip

Closest report is Sumburgh Airport, 31.9 nm (59.0 km) SSW.

2024/07/12 23:50 (retrieved 30 minutes ago)

EGPB 122350Z AUTO 03006KT 9999 OVC007/// 11/10 Q1019

Closest aviation forecast (TAF) to Whalsay Airstrip

Forecast is more than 6 hours old.

Closest forecast is Ă„mari Air Base, 757.0 nm (1,402.0 km) E.

2024/07/12 12:24 (retrieved 12 hours ago)

TAF EEEI 121216Z 1212/1312 CNL